Kezdőlap
METAR-TAF:

METAR-TAF

Repülőterek :

Moszkva, Oroszország

földrajzi szélesség: 55-30-42N, földrajzi hosszúság: 037-30-26E, magasság: 173 m

Jelenlegi meteorológiai megfigyelések

A jelentés 2 órával és 58 perccel ezelõtt készült, 20:00 UTC
Dél-délkeleti szél 6 kt
Hőmérséklet 0°C
Páratartalom 93%
Légköri nyomás 1029 hPa
Látótávolság 10 km, vagy több
felhőtlen 1500 m magasságban, és nincs gomolyfelhõ

METAR: UUMO 152000Z 16003MPS CAVOK 00/M01 Q1029 R26/090060 NOSIG RMK QFE756/1008

Idő: 01:58 (22:58 UTC)

Előrejelzés

A jelentés 3 órával és 3 perccel ezelõtt készült, 19:55 UTC
Az előrejelzés 15-én 21 óra UTC és 16-én 06 óra UTC között érvényes
Délkeleti szél 6 kt széllökések: 16 kt
Látótávolság: 7000 m
Szórványos felhőzet 1500 lábon
15-én 21 óra UTC és 16-én 05 óra UTC között ideiglenes
Látótávolság: 4000 m
Szórványos felhőzet 500 lábon
Párásság

TAF: UUMO 151955Z 1521/1606 14003G08MPS 7000 SCT015 TEMPO 1521/1605 4000 BR SCT005

Meteorológiai megfigyelések és előrejelzések több, mint 4000 repülőtéren (METAR és TAF jelentéseket).

A térképen piros és sárga pontok jelzik az elérhető meteorológiai állomásokat.

Mozgassa az egeret a pont fölött, hogy megjelenjen az állomás neve.

Azután kattintson az időjárási megfigyelések és előrejelzések megtekintéséhez.

A térkép megváltoztatása: kattintson a fekete keresztel jelölt zöld gombra ráközelítéshez, a vonallal jelölt zöld gombra távolításhoz, vagy a zöld nyilakra a szomszédos térképek eléréséhez.


METAR-TAF: